Berea, KY

5:37 PM EDT on August 24, 2016 (GMT -0400)
Richmond

Weather History for KI39 - January, 2014

Change the Weather History Date:

Sunday, January 19, 2014

  Actual Average (KLOZ) Record (KLOZ)
Temperature  
Mean Temperature 34 °F 35 °F  
Max Temperature 37 °F 45 °F 70 °F (1996)
Min Temperature 30 °F 26 °F -25 °F (1994)
Degree Days  
Heating Degree Days 32 30  
Month to date heating degree days 566  
Since 1 July heating degree days 2218  
Cooling Degree Days 0 0  
Month to date cooling degree days 0  
Year to date cooling degree days 0  
Moisture  
Dew Point 25 °F    
Average Humidity 68    
Maximum Humidity 93    
Minimum Humidity 52    
Precipitation  
Precipitation 0.00 in 0.12 in 1.44 in (2001)
Month to date precipitation 2.17  
Year to date precipitation 2.17  
Sea Level Pressure  
Sea Level Pressure 29.91 in    
Wind  
Wind Speed 11 mph (WSW)    
Max Wind Speed 21 mph    
Max Gust Speed 29 mph    
Visibility 10 miles    
Events      
T = Trace of Precipitation, MM = Missing Value Source: NWS Daily Summary

Daily Weather History Graph

Daily Weather History Graph

Search for Another Location

Airport or City:

Trip Planner

Search our weather history database for the weather conditions in past years. The results will help you decide how hot, cold, wet, or windy it might be!

Date:

Astronomy

Jan. 19, 2014 Rise Set
Actual Time 7:49 AM EST 5:46 PM EST
Civil Twilight 7:21 AM EST 6:15 PM EST
Nautical Twilight 6:49 AM EST 6:47 PM EST
Astronomical Twilight 6:17 AM EST 7:18 PM EST
Moon 9:19 PM EST (1/19) 9:23 AM EST (1/19)
Length of Visible Light 10h 54m
Length of Day
9h 57m
Waning Gibbous, 89% of the Moon is Illuminated
Jan 19
Waning Gibbous
Jan 24
Last Quarter
Jan 30
New
Feb 6
First Quarter
Feb 14
Full

Hourly Weather History & Observations

Time (EST) Temp. Windchill Dew Point Humidity Pressure Visibility Wind Dir Wind Speed Gust Speed Precip Events Conditions
12:15 AM 33.8 °F 28.6 °F 17.6 °F 52% 29.79 in 10.0 mi SW 5.8 mph - N/A   Clear
12:35 AM 33.8 °F 26.4 °F 17.6 °F 52% 29.79 in 10.0 mi SSW 9.2 mph - N/A   Clear
12:55 AM 33.8 °F 25.3 °F 17.6 °F 52% 29.79 in 10.0 mi South 11.5 mph - N/A   Scattered Clouds
1:15 AM 33.8 °F 26.4 °F 17.6 °F 52% 29.79 in 10.0 mi SSW 9.2 mph - N/A   Scattered Clouds
1:35 AM 33.8 °F 26.4 °F 17.6 °F 52% 29.79 in 10.0 mi SSW 9.2 mph - N/A   Mostly Cloudy
1:55 AM 35.6 °F 28.0 °F 19.4 °F 52% 29.79 in 10.0 mi SSW 10.4 mph - N/A   Overcast
2:15 AM 35.6 °F 29.2 °F 19.4 °F 52% 29.80 in 10.0 mi SW 8.1 mph - N/A   Overcast
2:35 AM 35.6 °F 29.2 °F 21.2 °F 56% 29.80 in 10.0 mi SW 8.1 mph - N/A   Overcast
2:55 AM 35.6 °F 28.6 °F 23.0 °F 60% 29.81 in 10.0 mi SW 9.2 mph - N/A   Overcast
3:15 AM 35.6 °F 30.7 °F 23.0 °F 60% 29.81 in 10.0 mi WSW 5.8 mph - N/A   Overcast
3:35 AM 35.6 °F 28.6 °F 26.6 °F 70% 29.82 in 10.0 mi WSW 9.2 mph - N/A   Overcast
3:55 AM 35.6 °F 29.9 °F 28.4 °F 75% 29.82 in 10.0 mi WSW 6.9 mph - N/A   Overcast
4:15 AM 35.6 °F 29.9 °F 28.4 °F 75% 29.83 in 10.0 mi WSW 6.9 mph - N/A   Overcast
4:35 AM 35.6 °F 29.2 °F 28.4 °F 75% 29.83 in 10.0 mi WSW 8.1 mph - N/A   Overcast
4:55 AM 35.6 °F 29.2 °F 28.4 °F 75% 29.84 in 10.0 mi WSW 8.1 mph - N/A   Overcast
5:15 AM 35.6 °F 29.2 °F 28.4 °F 75% 29.84 in 10.0 mi WSW 8.1 mph - N/A   Overcast
5:35 AM 35.6 °F 28.0 °F 28.4 °F 75% 29.85 in 10.0 mi West 10.4 mph 16.1 mph N/A   Overcast
5:55 AM 35.6 °F 28.0 °F 28.4 °F 75% 29.86 in 10.0 mi West 10.4 mph 17.3 mph N/A   Overcast
6:15 AM 35.6 °F 27.5 °F 30.2 °F 81% 29.86 in 10.0 mi West 11.5 mph - N/A   Overcast
6:35 AM 35.6 °F 28.0 °F 30.2 °F 81% 29.86 in 10.0 mi West 10.4 mph 16.1 mph N/A   Overcast
6:55 AM 35.6 °F 28.0 °F 30.2 °F 81% 29.88 in 10.0 mi West 10.4 mph - N/A   Overcast
7:15 AM 35.6 °F 28.0 °F 30.2 °F 81% 29.89 in 10.0 mi West 10.4 mph 17.3 mph N/A   Overcast
7:35 AM 33.8 °F 25.3 °F 30.2 °F 87% 29.90 in 10.0 mi West 11.5 mph - N/A   Overcast
7:55 AM 33.8 °F 24.3 °F 30.2 °F 87% 29.92 in 7.0 mi West 13.8 mph 17.3 mph N/A   Overcast
8:15 AM 33.8 °F 25.3 °F 32.0 °F 93% 29.93 in 7.0 mi West 11.5 mph 18.4 mph N/A   Overcast
8:35 AM 33.8 °F 24.8 °F 30.2 °F 87% 29.94 in 10.0 mi West 12.7 mph 17.3 mph N/A   Overcast
8:55 AM 32.0 °F 22.1 °F 30.2 °F 93% 29.96 in 1.2 mi WNW 13.8 mph 17.3 mph N/A   Overcast
9:15 AM 32.0 °F 20.5 °F 28.4 °F 87% 29.98 in 10.0 mi WNW 18.4 mph 26.5 mph N/A   Overcast
9:35 AM 30.2 °F 18.9 °F 26.6 °F 86% 29.98 in 10.0 mi WNW 16.1 mph 24.2 mph N/A   Overcast
9:55 AM 30.2 °F 19.3 °F 26.6 °F 86% 29.99 in 10.0 mi WNW 15.0 mph 18.4 mph N/A   Overcast
10:15 AM 30.2 °F 19.3 °F 24.8 °F 80% 30.01 in 10.0 mi West 15.0 mph 20.7 mph N/A   Overcast
10:35 AM 30.2 °F 19.3 °F 24.8 °F 80% 30.01 in 10.0 mi West 15.0 mph - N/A   Overcast
10:55 AM 30.2 °F 19.8 °F 24.8 °F 80% 30.02 in 10.0 mi West 13.8 mph 17.3 mph N/A   Overcast
11:15 AM 30.2 °F 21.3 °F 24.8 °F 80% 30.04 in 10.0 mi West 10.4 mph - N/A   Overcast
11:35 AM 30.2 °F 20.8 °F 23.0 °F 75% 30.03 in 10.0 mi West 11.5 mph 18.4 mph N/A   Overcast
11:55 AM 32.0 °F 22.5 °F 23.0 °F 69% 30.03 in 10.0 mi West 12.7 mph 17.3 mph N/A   Overcast
12:15 PM 32.0 °F 23.6 °F 24.8 °F 75% 30.02 in 10.0 mi WSW 10.4 mph - N/A   Mostly Cloudy
12:35 PM 32.0 °F 23.6 °F 24.8 °F 75% 30.01 in 10.0 mi WSW 10.4 mph 16.1 mph N/A   Overcast
12:55 PM 32.0 °F 23.0 °F 24.8 °F 75% 30.01 in 10.0 mi WSW 11.5 mph 16.1 mph N/A   Overcast
1:15 PM 33.8 °F 25.3 °F 24.8 °F 70% 30.00 in 10.0 mi SW 11.5 mph 17.3 mph N/A   Mostly Cloudy
1:35 PM 35.6 °F 27.5 °F 24.8 °F 65% 29.99 in 10.0 mi WSW 11.5 mph - N/A   Mostly Cloudy
1:55 PM 35.6 °F 26.6 °F 24.8 °F 65% 29.99 in 10.0 mi WSW 13.8 mph 17.3 mph N/A   Scattered Clouds
2:15 PM 35.6 °F 26.6 °F 24.8 °F 65% 29.98 in 10.0 mi WSW 13.8 mph 18.4 mph N/A   Mostly Cloudy
2:35 PM 35.6 °F 27.5 °F 24.8 °F 65% 29.98 in 10.0 mi SW 11.5 mph 19.6 mph N/A   Mostly Cloudy
2:55 PM 37.4 °F 29.3 °F 24.8 °F 60% 29.98 in 10.0 mi SW 12.7 mph - N/A   Scattered Clouds
3:15 PM 37.4 °F 29.3 °F 24.8 °F 60% 29.97 in 10.0 mi SSW 12.7 mph 18.4 mph N/A   Clear
3:35 PM 37.4 °F 29.3 °F 23.0 °F 56% 29.97 in 10.0 mi SSW 12.7 mph 18.4 mph N/A   Clear
3:55 PM 37.4 °F 28.9 °F 23.0 °F 56% 29.98 in 10.0 mi SW 13.8 mph 17.3 mph N/A   Clear
4:15 PM 37.4 °F 30.3 °F 23.0 °F 56% 29.97 in 10.0 mi SW 10.4 mph 20.7 mph N/A   Clear
4:35 PM 37.4 °F 29.8 °F 24.8 °F 60% 29.97 in 10.0 mi SW 11.5 mph 19.6 mph N/A   Clear
4:55 PM 37.4 °F 28.2 °F 23.0 °F 56% 29.96 in 10.0 mi SW 16.1 mph 20.7 mph N/A   Clear
5:15 PM 37.4 °F 28.9 °F 23.0 °F 56% 29.96 in 10.0 mi SW 13.8 mph - N/A   Clear
5:35 PM 35.6 °F 28.0 °F 24.8 °F 65% 29.96 in 10.0 mi SW 10.4 mph - N/A   Clear
5:55 PM 35.6 °F 28.6 °F 23.0 °F 60% 29.95 in 10.0 mi SSW 9.2 mph - N/A   Clear
6:15 PM 35.6 °F 29.9 °F 24.8 °F 65% 29.94 in 10.0 mi SSW 6.9 mph - N/A   Clear
6:35 PM 33.8 °F 27.0 °F 24.8 °F 70% 29.93 in 10.0 mi SSW 8.1 mph - N/A   Clear
6:55 PM 33.8 °F 26.4 °F 24.8 °F 70% 29.93 in 10.0 mi SSW 9.2 mph - N/A   Clear
7:15 PM 33.8 °F 25.8 °F 24.8 °F 70% 29.94 in 10.0 mi SW 10.4 mph 16.1 mph N/A   Clear
7:35 PM 35.6 °F 28.6 °F 24.8 °F 65% 29.93 in 10.0 mi SSW 9.2 mph 17.3 mph N/A   Clear
8:15 PM 35.6 °F 25.9 °F 24.8 °F 65% 29.92 in 10.0 mi SW 16.1 mph 21.9 mph N/A   Clear
8:35 PM 35.6 °F 27.1 °F 24.8 °F 65% 29.91 in 10.0 mi SSW 12.7 mph 19.6 mph N/A   Clear
8:55 PM 35.6 °F 27.1 °F 24.8 °F 65% 29.91 in 10.0 mi SSW 12.7 mph 23.0 mph N/A   Clear
9:15 PM 35.6 °F 26.6 °F 24.8 °F 65% 29.90 in 10.0 mi SSW 13.8 mph 20.7 mph N/A   Clear
9:35 PM 37.4 °F 28.5 °F 24.8 °F 60% 29.88 in 10.0 mi SSW 15.0 mph 28.8 mph N/A   Clear
9:55 PM 37.4 °F 26.9 °F 24.8 °F 60% 29.88 in 10.0 mi SSW 20.7 mph 25.3 mph N/A   Clear
10:15 PM 37.4 °F 27.2 °F 24.8 °F 60% 29.86 in 10.0 mi SSW 19.6 mph 27.6 mph N/A   Clear
10:35 PM 37.4 °F 27.2 °F 24.8 °F 60% 29.86 in 10.0 mi SSW 19.6 mph 25.3 mph N/A   Clear
10:55 PM 37.4 °F 28.5 °F 24.8 °F 60% 29.86 in 10.0 mi SSW 15.0 mph 25.3 mph N/A   Clear
11:15 PM 37.4 °F 28.2 °F 24.8 °F 60% 29.86 in 10.0 mi SSW 16.1 mph 21.9 mph N/A   Clear
11:35 PM 37.4 °F 28.2 °F 24.8 °F 60% 29.86 in 10.0 mi SW 16.1 mph 23.0 mph N/A   Clear
11:55 PM 37.4 °F 29.3 °F 24.8 °F 60% 29.86 in 10.0 mi SW 12.7 mph 20.7 mph N/A   Clear